sensor_id;sensor_type;location;lat;lon;timestamp;pressure;altitude;pressure_sealevel;temperature
68440;BMP180;55421;51.600;5.718;2022-10-26T00:01:09;155311.80;;;11.50
68440;BMP180;55421;51.600;5.718;2022-10-26T00:03:39;154501.00;;;11.50
68440;BMP180;55421;51.600;5.718;2022-10-26T00:06:16;154832.20;;;11.50
68440;BMP180;55421;51.600;5.718;2022-10-26T00:08:44;155276.20;;;11.50
68440;BMP180;55421;51.600;5.718;2022-10-26T00:11:11;155042.00;;;11.50
68440;BMP180;55421;51.600;5.718;2022-10-26T00:13:39;154369.41;;;11.48
68440;BMP180;55421;51.600;5.718;2022-10-26T00:16:16;153777.80;;;11.50
68440;BMP180;55421;51.600;5.718;2022-10-26T00:18:43;153620.59;;;11.50
68440;BMP180;55421;51.600;5.718;2022-10-26T00:21:10;153022.80;;;11.50
68440;BMP180;55421;51.600;5.718;2022-10-26T00:23:37;151177.59;;;11.50
68440;BMP180;55421;51.600;5.718;2022-10-26T00:26:05;150407.20;;;11.50
68440;BMP180;55421;51.600;5.718;2022-10-26T00:28:32;151202.59;;;11.50
68440;BMP180;55421;51.600;5.718;2022-10-26T00:31:13;153069.80;;;11.50
68440;BMP180;55421;51.600;5.718;2022-10-26T00:33:40;152472.59;;;11.60
68440;BMP180;55421;51.600;5.718;2022-10-26T00:36:07;153231.80;;;11.60
68440;BMP180;55421;51.600;5.718;2022-10-26T00:38:36;153757.59;;;11.60
68440;BMP180;55421;51.600;5.718;2022-10-26T00:41:03;153937.80;;;11.60
68440;BMP180;55421;51.600;5.718;2022-10-26T00:45:57;153727.20;;;11.60
68440;BMP180;55421;51.600;5.718;2022-10-26T00:48:42;154089.00;;;11.60
68440;BMP180;55421;51.600;5.718;2022-10-26T00:51:26;154412.41;;;11.64
68440;BMP180;55421;51.600;5.718;2022-10-26T00:54:02;154435.20;;;11.60
68440;BMP180;55421;51.600;5.718;2022-10-26T00:56:31;154304.41;;;11.60
68440;BMP180;55421;51.600;5.718;2022-10-26T00:59:05;155535.41;;;11.60
68440;BMP180;55421;51.600;5.718;2022-10-26T01:01:37;154888.20;;;11.60
68440;BMP180;55421;51.600;5.718;2022-10-26T01:04:05;154057.20;;;11.60
68440;BMP180;55421;51.600;5.718;2022-10-26T01:06:34;154814.80;;;11.50
68440;BMP180;55421;51.600;5.718;2022-10-26T01:09:03;154436.80;;;11.50
68440;BMP180;55421;51.600;5.718;2022-10-26T01:11:30;154145.41;;;11.50
68440;BMP180;55421;51.600;5.718;2022-10-26T01:14:01;153828.00;;;11.50
68440;BMP180;55421;51.600;5.718;2022-10-26T01:22:23;153574.80;;;11.50
68440;BMP180;55421;51.600;5.718;2022-10-26T01:25:32;153990.41;;;11.50
68440;BMP180;55421;51.600;5.718;2022-10-26T01:31:02;153758.41;;;11.50
68440;BMP180;55421;51.600;5.718;2022-10-26T01:39:15;155700.80;;;11.60
68440;BMP180;55421;51.600;5.718;2022-10-26T01:41:52;154391.00;;;11.60
68440;BMP180;55421;51.600;5.718;2022-10-26T01:44:30;157754.80;;;11.60
68440;BMP180;55421;51.600;5.718;2022-10-26T01:46:59;156918.00;;;11.60
68440;BMP180;55421;51.600;5.718;2022-10-26T01:49:32;157233.00;;;11.60
68440;BMP180;55421;51.600;5.718;2022-10-26T01:52:01;157844.20;;;11.60
68440;BMP180;55421;51.600;5.718;2022-10-26T01:54:28;156656.59;;;11.60
68440;BMP180;55421;51.600;5.718;2022-10-26T01:57:00;156944.59;;;11.60
68440;BMP180;55421;51.600;5.718;2022-10-26T02:03:21;155381.20;;;11.60
68440;BMP180;55421;51.600;5.718;2022-10-26T02:06:05;155224.80;;;11.60
68440;BMP180;55421;51.600;5.718;2022-10-26T02:09:03;155057.59;;;11.60
68440;BMP180;55421;51.600;5.718;2022-10-26T02:11:41;157035.80;;;11.60
68440;BMP180;55421;51.600;5.718;2022-10-26T02:16:55;155950.00;;;11.60
68440;BMP180;55421;51.600;5.718;2022-10-26T02:19:47;157288.59;;;11.66
68440;BMP180;55421;51.600;5.718;2022-10-26T02:22:32;156257.20;;;11.62
68440;BMP180;55421;51.600;5.718;2022-10-26T02:25:08;156224.20;;;11.62
68440;BMP180;55421;51.600;5.718;2022-10-26T02:27:47;156591.00;;;11.60
68440;BMP180;55421;51.600;5.718;2022-10-26T02:30:16;156569.59;;;11.60
68440;BMP180;55421;51.600;5.718;2022-10-26T02:32:47;156193.59;;;11.60
68440;BMP180;55421;51.600;5.718;2022-10-26T02:35:20;155101.41;;;11.60
68440;BMP180;55421;51.600;5.718;2022-10-26T02:37:51;154665.80;;;11.60
68440;BMP180;55421;51.600;5.718;2022-10-26T02:40:24;152878.59;;;11.50
68440;BMP180;55421;51.600;5.718;2022-10-26T02:42:54;152434.80;;;11.50
68440;BMP180;55421;51.600;5.718;2022-10-26T02:45:33;152244.00;;;11.40
68440;BMP180;55421;51.600;5.718;2022-10-26T02:48:02;153546.00;;;11.40
68440;BMP180;55421;51.600;5.718;2022-10-26T02:50:50;153196.20;;;11.40
68440;BMP180;55421;51.600;5.718;2022-10-26T02:53:34;153469.00;;;11.40
68440;BMP180;55421;51.600;5.718;2022-10-26T02:56:17;154556.59;;;11.42
68440;BMP180;55421;51.600;5.718;2022-10-26T02:58:50;155653.00;;;11.50
68440;BMP180;55421;51.600;5.718;2022-10-26T03:01:18;156231.80;;;11.50
68440;BMP180;55421;51.600;5.718;2022-10-26T03:03:45;155963.00;;;11.50
68440;BMP180;55421;51.600;5.718;2022-10-26T03:06:19;155651.41;;;11.50
68440;BMP180;55421;51.600;5.718;2022-10-26T03:08:46;155220.80;;;11.50
68440;BMP180;55421;51.600;5.718;2022-10-26T03:11:12;155877.00;;;11.50
68440;BMP180;55421;51.600;5.718;2022-10-26T03:13:39;156368.59;;;11.52
68440;BMP180;55421;51.600;5.718;2022-10-26T03:16:05;156535.59;;;11.52
68440;BMP180;55421;51.600;5.718;2022-10-26T03:18:32;155942.00;;;11.58
68440;BMP180;55421;51.600;5.718;2022-10-26T03:20:58;156876.20;;;11.60
68440;BMP180;55421;51.600;5.718;2022-10-26T03:23:25;157587.00;;;11.60
68440;BMP180;55421;51.600;5.718;2022-10-26T03:25:56;154597.20;;;11.60
68440;BMP180;55421;51.600;5.718;2022-10-26T03:28:23;153660.80;;;11.60
68440;BMP180;55421;51.600;5.718;2022-10-26T03:30:50;153791.80;;;11.60
68440;BMP180;55421;51.600;5.718;2022-10-26T03:33:17;151562.59;;;11.60
68440;BMP180;55421;51.600;5.718;2022-10-26T03:35:43;151901.41;;;11.60
68440;BMP180;55421;51.600;5.718;2022-10-26T03:38:10;149973.80;;;11.60
68440;BMP180;55421;51.600;5.718;2022-10-26T03:40:36;149913.59;;;11.60
68440;BMP180;55421;51.600;5.718;2022-10-26T03:43:03;149985.41;;;11.60
68440;BMP180;55421;51.600;5.718;2022-10-26T03:45:29;149338.00;;;11.60
68440;BMP180;55421;51.600;5.718;2022-10-26T03:47:55;146947.00;;;11.60
68440;BMP180;55421;51.600;5.718;2022-10-26T03:50:22;149454.41;;;11.60
68440;BMP180;55421;51.600;5.718;2022-10-26T03:52:49;146817.20;;;11.60
68440;BMP180;55421;51.600;5.718;2022-10-26T03:55:15;146812.41;;;11.60
68440;BMP180;55421;51.600;5.718;2022-10-26T03:57:44;147605.80;;;11.60
68440;BMP180;55421;51.600;5.718;2022-10-26T04:00:14;149690.80;;;11.60
68440;BMP180;55421;51.600;5.718;2022-10-26T04:02:52;151845.00;;;11.64
68440;BMP180;55421;51.600;5.718;2022-10-26T04:05:19;153469.41;;;11.66
68440;BMP180;55421;51.600;5.718;2022-10-26T04:07:53;153927.41;;;11.70
68440;BMP180;55421;51.600;5.718;2022-10-26T04:10:20;152587.80;;;11.60
68440;BMP180;55421;51.600;5.718;2022-10-26T04:12:47;154799.00;;;11.60
68440;BMP180;55421;51.600;5.718;2022-10-26T04:15:14;155441.20;;;11.60
68440;BMP180;55421;51.600;5.718;2022-10-26T04:17:41;156807.41;;;11.66
68440;BMP180;55421;51.600;5.718;2022-10-26T04:20:08;156809.00;;;11.68
68440;BMP180;55421;51.600;5.718;2022-10-26T04:22:34;157716.00;;;11.60
68440;BMP180;55421;51.600;5.718;2022-10-26T04:25:03;158010.59;;;11.62
68440;BMP180;55421;51.600;5.718;2022-10-26T04:27:30;157814.00;;;11.70
68440;BMP180;55421;51.600;5.718;2022-10-26T04:29:57;157503.00;;;11.70
68440;BMP180;55421;51.600;5.718;2022-10-26T04:32:24;158156.41;;;11.68
68440;BMP180;55421;51.600;5.718;2022-10-26T04:34:50;159818.00;;;11.60
68440;BMP180;55421;51.600;5.718;2022-10-26T04:37:19;160548.59;;;11.70
68440;BMP180;55421;51.600;5.718;2022-10-26T04:39:46;161028.80;;;11.70
68440;BMP180;55421;51.600;5.718;2022-10-26T04:42:12;160839.00;;;11.70
68440;BMP180;55421;51.600;5.718;2022-10-26T04:44:39;161154.20;;;11.70
68440;BMP180;55421;51.600;5.718;2022-10-26T04:47:05;158330.20;;;11.70
68440;BMP180;55421;51.600;5.718;2022-10-26T04:49:31;158290.59;;;11.70
68440;BMP180;55421;51.600;5.718;2022-10-26T04:51:58;156319.59;;;11.70
68440;BMP180;55421;51.600;5.718;2022-10-26T04:54:24;156870.20;;;11.70
68440;BMP180;55421;51.600;5.718;2022-10-26T04:56:51;157729.80;;;11.70
68440;BMP180;55421;51.600;5.718;2022-10-26T04:59:17;157568.59;;;11.70
68440;BMP180;55421;51.600;5.718;2022-10-26T05:01:43;158703.59;;;11.70
68440;BMP180;55421;51.600;5.718;2022-10-26T05:04:10;158636.00;;;11.70
68440;BMP180;55421;51.600;5.718;2022-10-26T05:06:36;159205.20;;;11.70
68440;BMP180;55421;51.600;5.718;2022-10-26T05:09:03;159135.00;;;11.76
68440;BMP180;55421;51.600;5.718;2022-10-26T05:11:29;160073.00;;;11.78
68440;BMP180;55421;51.600;5.718;2022-10-26T05:13:55;159299.00;;;11.80
68440;BMP180;55421;51.600;5.718;2022-10-26T05:16:22;159480.00;;;11.80
68440;BMP180;55421;51.600;5.718;2022-10-26T05:18:48;160685.80;;;11.80
68440;BMP180;55421;51.600;5.718;2022-10-26T05:21:16;160924.80;;;11.90
68440;BMP180;55421;51.600;5.718;2022-10-26T05:23:50;161433.00;;;11.90
68440;BMP180;55421;51.600;5.718;2022-10-26T05:26:22;160654.00;;;11.90
68440;BMP180;55421;51.600;5.718;2022-10-26T05:28:50;160960.00;;;12.00
68440;BMP180;55421;51.600;5.718;2022-10-26T05:31:16;161871.41;;;12.00
68440;BMP180;55421;51.600;5.718;2022-10-26T05:33:43;161817.20;;;12.00
68440;BMP180;55421;51.600;5.718;2022-10-26T05:36:09;160829.00;;;12.00
68440;BMP180;55421;51.600;5.718;2022-10-26T05:38:36;160979.80;;;12.08
68440;BMP180;55421;51.600;5.718;2022-10-26T05:41:02;161025.41;;;12.10
68440;BMP180;55421;51.600;5.718;2022-10-26T05:43:28;160888.41;;;12.10
68440;BMP180;55421;51.600;5.718;2022-10-26T05:45:55;161387.59;;;12.10
68440;BMP180;55421;51.600;5.718;2022-10-26T05:48:22;160571.20;;;12.10
68440;BMP180;55421;51.600;5.718;2022-10-26T05:50:48;162099.20;;;12.10
68440;BMP180;55421;51.600;5.718;2022-10-26T05:53:15;161542.80;;;12.14
68440;BMP180;55421;51.600;5.718;2022-10-26T05:55:42;161954.80;;;12.16
68440;BMP180;55421;51.600;5.718;2022-10-26T05:58:12;162097.80;;;12.20
68440;BMP180;55421;51.600;5.718;2022-10-26T06:06:52;162631.20;;;12.20
68440;BMP180;55421;51.600;5.718;2022-10-26T06:09:20;162574.80;;;12.22
68440;BMP180;55421;51.600;5.718;2022-10-26T06:11:47;162503.20;;;12.30
68440;BMP180;55421;51.600;5.718;2022-10-26T06:14:15;163310.20;;;12.30
68440;BMP180;55421;51.600;5.718;2022-10-26T06:20:00;163394.20;;;12.30
68440;BMP180;55421;51.600;5.718;2022-10-26T06:30:46;162448.59;;;12.40
68440;BMP180;55421;51.600;5.718;2022-10-26T06:33:14;162950.59;;;12.40
68440;BMP180;55421;51.600;5.718;2022-10-26T06:35:56;163175.80;;;12.40
68440;BMP180;55421;51.600;5.718;2022-10-26T06:38:28;163343.59;;;12.40
68440;BMP180;55421;51.600;5.718;2022-10-26T06:40:58;163445.80;;;12.40
68440;BMP180;55421;51.600;5.718;2022-10-26T06:43:29;163839.41;;;12.40
68440;BMP180;55421;51.600;5.718;2022-10-26T06:49:17;163672.80;;;12.40
68440;BMP180;55421;51.600;5.718;2022-10-26T06:51:54;163365.00;;;12.40
68440;BMP180;55421;51.600;5.718;2022-10-26T06:54:48;162641.80;;;12.40
68440;BMP180;55421;51.600;5.718;2022-10-26T06:57:31;163106.59;;;12.40
68440;BMP180;55421;51.600;5.718;2022-10-26T07:00:15;162752.00;;;12.34
68440;BMP180;55421;51.600;5.718;2022-10-26T07:02:44;162959.41;;;12.40
68440;BMP180;55421;51.600;5.718;2022-10-26T07:05:11;163001.80;;;12.36
68440;BMP180;55421;51.600;5.718;2022-10-26T07:07:46;162603.80;;;12.38
68440;BMP180;55421;51.600;5.718;2022-10-26T07:10:14;162287.41;;;12.30
68440;BMP180;55421;51.600;5.718;2022-10-26T07:12:41;162157.80;;;12.30
68440;BMP180;55421;51.600;5.718;2022-10-26T07:15:07;162434.20;;;12.30
68440;BMP180;55421;51.600;5.718;2022-10-26T07:17:47;161731.00;;;12.36
68440;BMP180;55421;51.600;5.718;2022-10-26T07:20:19;161980.00;;;12.40
68440;BMP180;55421;51.600;5.718;2022-10-26T07:22:54;161667.80;;;12.40
68440;BMP180;55421;51.600;5.718;2022-10-26T07:25:23;161955.20;;;12.50
68440;BMP180;55421;51.600;5.718;2022-10-26T07:27:50;162012.80;;;12.50
68440;BMP180;55421;51.600;5.718;2022-10-26T07:30:17;161164.41;;;12.60
68440;BMP180;55421;51.600;5.718;2022-10-26T07:32:43;160787.80;;;12.60
68440;BMP180;55421;51.600;5.718;2022-10-26T07:35:10;161757.80;;;12.70
68440;BMP180;55421;51.600;5.718;2022-10-26T07:37:36;160915.20;;;12.80
68440;BMP180;55421;51.600;5.718;2022-10-26T07:40:04;162693.41;;;12.90
68440;BMP180;55421;51.600;5.718;2022-10-26T07:42:31;163494.59;;;13.00
68440;BMP180;55421;51.600;5.718;2022-10-26T07:44:57;162155.00;;;13.10
68440;BMP180;55421;51.600;5.718;2022-10-26T07:47:24;163975.41;;;13.16
68440;BMP180;55421;51.600;5.718;2022-10-26T07:49:50;164615.41;;;13.24
68440;BMP180;55421;51.600;5.718;2022-10-26T07:52:16;164231.80;;;13.32
68440;BMP180;55421;51.600;5.718;2022-10-26T07:54:43;164685.41;;;13.40
68440;BMP180;55421;51.600;5.718;2022-10-26T07:57:09;164698.20;;;13.50
68440;BMP180;55421;51.600;5.718;2022-10-26T07:59:35;164275.00;;;13.60
68440;BMP180;55421;51.600;5.718;2022-10-26T08:02:02;164189.00;;;13.70
68440;BMP180;55421;51.600;5.718;2022-10-26T08:04:28;165072.80;;;13.80
68440;BMP180;55421;51.600;5.718;2022-10-26T08:06:55;165363.00;;;13.90
68440;BMP180;55421;51.600;5.718;2022-10-26T08:09:21;165643.59;;;13.90
68440;BMP180;55421;51.600;5.718;2022-10-26T08:11:47;165576.80;;;14.00
68440;BMP180;55421;51.600;5.718;2022-10-26T08:14:14;165291.59;;;14.10
68440;BMP180;55421;51.600;5.718;2022-10-26T08:16:40;165395.41;;;14.10
68440;BMP180;55421;51.600;5.718;2022-10-26T08:19:07;164690.00;;;14.10
68440;BMP180;55421;51.600;5.718;2022-10-26T08:21:33;165390.80;;;14.10
68440;BMP180;55421;51.600;5.718;2022-10-26T08:24:00;165009.00;;;14.10
68440;BMP180;55421;51.600;5.718;2022-10-26T08:26:27;165295.20;;;14.20
68440;BMP180;55421;51.600;5.718;2022-10-26T08:28:54;165506.59;;;14.20
68440;BMP180;55421;51.600;5.718;2022-10-26T08:31:20;165771.80;;;14.20
68440;BMP180;55421;51.600;5.718;2022-10-26T08:33:47;165850.80;;;14.28
68440;BMP180;55421;51.600;5.718;2022-10-26T08:36:22;165793.80;;;14.30
68440;BMP180;55421;51.600;5.718;2022-10-26T08:38:48;165835.20;;;14.40
68440;BMP180;55421;51.600;5.718;2022-10-26T08:41:15;165591.41;;;14.60
68440;BMP180;55421;51.600;5.718;2022-10-26T08:43:50;166191.59;;;14.70
68440;BMP180;55421;51.600;5.718;2022-10-26T08:46:31;166397.00;;;14.90
68440;BMP180;55421;51.600;5.718;2022-10-26T08:49:19;166663.80;;;15.00
68440;BMP180;55421;51.600;5.718;2022-10-26T08:51:52;166682.59;;;15.10
68440;BMP180;55421;51.600;5.718;2022-10-26T08:54:37;166713.59;;;15.20
68440;BMP180;55421;51.600;5.718;2022-10-26T08:57:27;166736.59;;;15.30
68440;BMP180;55421;51.600;5.718;2022-10-26T09:00:12;166808.00;;;15.30
68440;BMP180;55421;51.600;5.718;2022-10-26T09:02:40;166707.59;;;15.40
68440;BMP180;55421;51.600;5.718;2022-10-26T09:05:16;166785.80;;;15.50
68440;BMP180;55421;51.600;5.718;2022-10-26T09:17:43;167026.00;;;15.74
68440;BMP180;55421;51.600;5.718;2022-10-26T09:20:48;167041.41;;;15.82
68440;BMP180;55421;51.600;5.718;2022-10-26T09:23:42;167087.20;;;15.90
68440;BMP180;55421;51.600;5.718;2022-10-26T09:26:14;167152.41;;;16.00
68440;BMP180;55421;51.600;5.718;2022-10-26T09:28:46;167179.59;;;16.10
68440;BMP180;55421;51.600;5.718;2022-10-26T09:31:15;167219.00;;;16.20
68440;BMP180;55421;51.600;5.718;2022-10-26T09:33:43;167253.80;;;16.30
68440;BMP180;55421;51.600;5.718;2022-10-26T09:36:21;167297.59;;;16.40
68440;BMP180;55421;51.600;5.718;2022-10-26T09:39:00;167337.59;;;16.50
68440;BMP180;55421;51.600;5.718;2022-10-26T09:42:00;167374.41;;;16.52
68440;BMP180;55421;51.600;5.718;2022-10-26T09:44:43;167412.20;;;16.60
68440;BMP180;55421;51.600;5.718;2022-10-26T09:49:59;167482.20;;;16.80
68440;BMP180;55421;51.600;5.718;2022-10-26T09:52:27;167527.41;;;16.90
68440;BMP180;55421;51.600;5.718;2022-10-26T09:54:53;167497.41;;;17.00
68440;BMP180;55421;51.600;5.718;2022-10-26T09:57:20;167586.80;;;17.00
68440;BMP180;55421;51.600;5.718;2022-10-26T09:59:47;167621.20;;;17.10
68440;BMP180;55421;51.600;5.718;2022-10-26T10:02:36;167640.41;;;17.20
68440;BMP180;55421;51.600;5.718;2022-10-26T10:05:26;167672.00;;;17.20
68440;BMP180;55421;51.600;5.718;2022-10-26T10:10:37;167701.80;;;17.30
68440;BMP180;55421;51.600;5.718;2022-10-26T10:13:24;167710.59;;;17.30
68440;BMP180;55421;51.600;5.718;2022-10-26T10:16:07;167732.59;;;17.40
68440;BMP180;55421;51.600;5.718;2022-10-26T10:18:40;167698.41;;;17.46
68440;BMP180;55421;51.600;5.718;2022-10-26T10:21:08;167650.41;;;17.50
68440;BMP180;55421;51.600;5.718;2022-10-26T10:23:48;167831.20;;;17.60
68440;BMP180;55421;51.600;5.718;2022-10-26T10:26:14;167474.41;;;17.70
68440;BMP180;55421;51.600;5.718;2022-10-26T10:28:41;167350.80;;;17.80
68440;BMP180;55421;51.600;5.718;2022-10-26T10:31:34;167717.20;;;17.80
68440;BMP180;55421;51.600;5.718;2022-10-26T10:34:14;166839.41;;;17.90
68440;BMP180;55421;51.600;5.718;2022-10-26T10:36:42;167239.59;;;17.90
68440;BMP180;55421;51.600;5.718;2022-10-26T10:42:16;167997.80;;;18.00
68440;BMP180;55421;51.600;5.718;2022-10-26T10:44:44;167824.80;;;18.00
68440;BMP180;55421;51.600;5.718;2022-10-26T10:47:33;167877.80;;;18.00
68440;BMP180;55421;51.600;5.718;2022-10-26T10:50:06;167828.59;;;18.00
68440;BMP180;55421;51.600;5.718;2022-10-26T10:52:36;167935.41;;;18.00
68440;BMP180;55421;51.600;5.718;2022-10-26T10:58:16;168030.00;;;18.10
68440;BMP180;55421;51.600;5.718;2022-10-26T11:00:47;167879.59;;;18.10
68440;BMP180;55421;51.600;5.718;2022-10-26T11:03:40;167792.59;;;18.20
68440;BMP180;55421;51.600;5.718;2022-10-26T11:06:16;167943.59;;;18.20
68440;BMP180;55421;51.600;5.718;2022-10-26T11:08:59;168111.59;;;18.26
68440;BMP180;55421;51.600;5.718;2022-10-26T11:12:36;168144.41;;;18.30
68440;BMP180;55421;51.600;5.718;2022-10-26T11:14:51;168182.59;;;18.40
68440;BMP180;55421;51.600;5.718;2022-10-26T11:17:28;168040.00;;;18.40
68440;BMP180;55421;51.600;5.718;2022-10-26T11:20:10;167988.41;;;18.40
68440;BMP180;55421;51.600;5.718;2022-10-26T11:22:53;168110.20;;;18.40
68440;BMP180;55421;51.600;5.718;2022-10-26T11:25:29;168163.41;;;18.40
68440;BMP180;55421;51.600;5.718;2022-10-26T11:28:16;168199.80;;;18.44
68440;BMP180;55421;51.600;5.718;2022-10-26T11:30:52;168231.80;;;18.50
68440;BMP180;55421;51.600;5.718;2022-10-26T11:33:31;168131.41;;;18.50
68440;BMP180;55421;51.600;5.718;2022-10-26T11:36:09;168109.00;;;18.50
68440;BMP180;55421;51.600;5.718;2022-10-26T11:38:58;168219.00;;;18.50
68440;BMP180;55421;51.600;5.718;2022-10-26T11:41:39;168132.20;;;18.50
68440;BMP180;55421;51.600;5.718;2022-10-26T11:44:42;168078.59;;;18.40
68440;BMP180;55421;51.600;5.718;2022-10-26T11:47:18;168184.80;;;18.40
68440;BMP180;55421;51.600;5.718;2022-10-26T11:50:12;168219.00;;;18.50
68440;BMP180;55421;51.600;5.718;2022-10-26T11:55:26;168344.80;;;18.80
68440;BMP180;55421;51.600;5.718;2022-10-26T11:57:54;168390.41;;;18.90
68440;BMP180;55421;51.600;5.718;2022-10-26T12:00:22;168376.20;;;18.90
68440;BMP180;55421;51.600;5.718;2022-10-26T12:03:00;168392.00;;;18.90
68440;BMP180;55421;51.600;5.718;2022-10-26T12:08:04;168394.00;;;18.90
68440;BMP180;55421;51.600;5.718;2022-10-26T12:10:34;168383.20;;;18.90
68440;BMP180;55421;51.600;5.718;2022-10-26T12:13:39;168285.00;;;18.80
68440;BMP180;55421;51.600;5.718;2022-10-26T12:16:34;168103.59;;;18.80
68440;BMP180;55421;51.600;5.718;2022-10-26T12:19:21;168272.59;;;18.80
68440;BMP180;55421;51.600;5.718;2022-10-26T12:21:50;168280.59;;;18.80
68440;BMP180;55421;51.600;5.718;2022-10-26T12:24:27;168189.00;;;18.76
68440;BMP180;55421;51.600;5.718;2022-10-26T12:27:05;168101.41;;;18.74
68440;BMP180;55421;51.600;5.718;2022-10-26T12:41:19;168320.41;;;18.80
68440;BMP180;55421;51.600;5.718;2022-10-26T12:43:46;168061.80;;;18.80
68440;BMP180;55421;51.600;5.718;2022-10-26T12:48:49;168292.80;;;18.80
68440;BMP180;55421;51.600;5.718;2022-10-26T12:51:40;168320.00;;;18.90
68440;BMP180;55421;51.600;5.718;2022-10-26T12:54:35;168322.80;;;18.90
68440;BMP180;55421;51.600;5.718;2022-10-26T12:57:52;168334.41;;;18.90
68440;BMP180;55421;51.600;5.718;2022-10-26T13:00:23;168363.00;;;18.90
68440;BMP180;55421;51.600;5.718;2022-10-26T13:03:11;168367.41;;;18.90
68440;BMP180;55421;51.600;5.718;2022-10-26T13:08:26;168407.20;;;19.00
68440;BMP180;55421;51.600;5.718;2022-10-26T13:11:04;168347.20;;;19.00
68440;BMP180;55421;51.600;5.718;2022-10-26T13:13:34;168385.41;;;19.10
68440;BMP180;55421;51.600;5.718;2022-10-26T13:16:01;168188.80;;;19.10
68440;BMP180;55421;51.600;5.718;2022-10-26T13:18:29;168113.20;;;19.20
68440;BMP180;55421;51.600;5.718;2022-10-26T13:21:15;167875.41;;;19.20
68440;BMP180;55421;51.600;5.718;2022-10-26T13:23:46;167712.59;;;19.30
68440;BMP180;55421;51.600;5.718;2022-10-26T13:26:26;167562.41;;;19.30
68440;BMP180;55421;51.600;5.718;2022-10-26T13:29:02;167544.00;;;19.30
68440;BMP180;55421;51.600;5.718;2022-10-26T13:34:14;166491.41;;;19.40
68440;BMP180;55421;51.600;5.718;2022-10-26T13:37:20;165736.80;;;19.40
68440;BMP180;55421;51.600;5.718;2022-10-26T13:39:49;167069.20;;;19.42
68440;BMP180;55421;51.600;5.718;2022-10-26T13:42:29;167805.59;;;19.50
68440;BMP180;55421;51.600;5.718;2022-10-26T13:45:05;167929.80;;;19.50
68440;BMP180;55421;51.600;5.718;2022-10-26T13:47:52;168083.20;;;19.50
68440;BMP180;55421;51.600;5.718;2022-10-26T13:50:34;167796.59;;;19.50
68440;BMP180;55421;51.600;5.718;2022-10-26T13:56:05;167434.59;;;19.60
68440;BMP180;55421;51.600;5.718;2022-10-26T13:58:44;167106.41;;;19.60
68440;BMP180;55421;51.600;5.718;2022-10-26T14:01:16;165812.00;;;19.60
68440;BMP180;55421;51.600;5.718;2022-10-26T14:03:43;165470.20;;;19.60
68440;BMP180;55421;51.600;5.718;2022-10-26T14:06:16;164071.00;;;19.52
68440;BMP180;55421;51.600;5.718;2022-10-26T14:08:47;163507.59;;;19.50
68440;BMP180;55421;51.600;5.718;2022-10-26T14:11:20;162742.20;;;19.50
68440;BMP180;55421;51.600;5.718;2022-10-26T14:13:49;161378.59;;;19.50
68440;BMP180;55421;51.600;5.718;2022-10-26T14:16:17;160946.59;;;19.50
68440;BMP180;55421;51.600;5.718;2022-10-26T14:18:47;158619.00;;;19.58
68440;BMP180;55421;51.600;5.718;2022-10-26T14:21:19;157379.80;;;19.50
68440;BMP180;55421;51.600;5.718;2022-10-26T14:23:59;155387.59;;;19.50
68440;BMP180;55421;51.600;5.718;2022-10-26T14:26:36;153889.41;;;19.54
68440;BMP180;55421;51.600;5.718;2022-10-26T14:29:14;151524.80;;;19.50
68440;BMP180;55421;51.600;5.718;2022-10-26T14:31:42;150565.80;;;19.50
68440;BMP180;55421;51.600;5.718;2022-10-26T14:34:11;150162.41;;;19.50
68440;BMP180;55421;51.600;5.718;2022-10-26T14:36:45;150047.59;;;19.50
68440;BMP180;55421;51.600;5.718;2022-10-26T14:39:41;147314.00;;;19.40
68440;BMP180;55421;51.600;5.718;2022-10-26T14:42:27;142364.59;;;19.40
68440;BMP180;55421;51.600;5.718;2022-10-26T14:44:55;138451.41;;;19.40
68440;BMP180;55421;51.600;5.718;2022-10-26T14:47:26;134517.00;;;19.40
68440;BMP180;55421;51.600;5.718;2022-10-26T14:49:53;133936.59;;;19.40
68440;BMP180;55421;51.600;5.718;2022-10-26T14:52:38;131455.20;;;19.32
68440;BMP180;55421;51.600;5.718;2022-10-26T14:55:15;128323.60;;;19.30
68440;BMP180;55421;51.600;5.718;2022-10-26T14:57:45;127622.60;;;19.22
68440;BMP180;55421;51.600;5.718;2022-10-26T15:00:17;129676.40;;;19.20
68440;BMP180;55421;51.600;5.718;2022-10-26T15:02:47;131401.80;;;19.20
68440;BMP180;55421;51.600;5.718;2022-10-26T15:07:51;135692.41;;;19.20
68440;BMP180;55421;51.600;5.718;2022-10-26T15:13:32;137693.00;;;19.12
68440;BMP180;55421;51.600;5.718;2022-10-26T15:16:20;138013.80;;;19.10
68440;BMP180;55421;51.600;5.718;2022-10-26T15:18:55;141204.00;;;19.00
68440;BMP180;55421;51.600;5.718;2022-10-26T15:21:34;143995.00;;;18.92
68440;BMP180;55421;51.600;5.718;2022-10-26T15:24:02;146327.80;;;18.90
68440;BMP180;55421;51.600;5.718;2022-10-26T15:26:29;146911.20;;;18.80
68440;BMP180;55421;51.600;5.718;2022-10-26T15:28:55;147542.59;;;18.80
68440;BMP180;55421;51.600;5.718;2022-10-26T15:31:29;148893.20;;;18.80
68440;BMP180;55421;51.600;5.718;2022-10-26T15:36:26;149971.41;;;18.70
68440;BMP180;55421;51.600;5.718;2022-10-26T15:38:53;148887.80;;;18.60
68440;BMP180;55421;51.600;5.718;2022-10-26T15:41:25;144642.80;;;18.60
68440;BMP180;55421;51.600;5.718;2022-10-26T15:43:56;142362.20;;;18.60
68440;BMP180;55421;51.600;5.718;2022-10-26T15:46:29;142536.59;;;18.50
68440;BMP180;55421;51.600;5.718;2022-10-26T15:49:03;142381.41;;;18.50
68440;BMP180;55421;51.600;5.718;2022-10-26T15:51:30;142467.80;;;18.50
68440;BMP180;55421;51.600;5.718;2022-10-26T15:53:59;142348.80;;;18.50
68440;BMP180;55421;51.600;5.718;2022-10-26T15:56:27;141438.41;;;18.50
68440;BMP180;55421;51.600;5.718;2022-10-26T15:58:53;140174.59;;;18.40
68440;BMP180;55421;51.600;5.718;2022-10-26T16:01:25;140616.59;;;18.40
68440;BMP180;55421;51.600;5.718;2022-10-26T16:03:53;139485.20;;;18.40
68440;BMP180;55421;51.600;5.718;2022-10-26T16:06:28;139838.20;;;18.30
68440;BMP180;55421;51.600;5.718;2022-10-26T16:08:58;139869.00;;;18.30
68440;BMP180;55421;51.600;5.718;2022-10-26T16:11:26;140521.00;;;18.28